N637IB LIRU-LIRU
Flight info
| Callsign | N637IB |
|---|---|
| Flight time | 1h 8m |
| Altitude | 7000 |
| Route | VP213 DCT VP216 DCT 423110N0123055E 423420N0123504E DCT VP242 DCT VP228 DCT VP237 DCT 421803N0133100E 421218N0133111E 421306N0132317E 421759N0131640E 421501N0130541E DCT VP216 DCT VP211 DCT 420015N0123143E |
| Aircraft | BE36/L-BDFGLORY/S |
Departure
| Time | 2026-04-20 09:01 |
|---|---|
| Airport | Rome Urbe Airport (LIRU) |
Arrival
| Time | 2026-04-20 10:10 |
|---|---|
| Airport | Rome Urbe Airport (LIRU) |
| Time | Latitude | Longitude | Altitude | Speed | Heading |
|---|---|---|---|---|---|
| 2026-04-20 08:45 | 41.95045 | 12.50507 | 60 ft | 0 kts | 350° |
| 2026-04-20 08:56 | 41.95046 | 12.50507 | 60 ft | 3 kts | 351° |
| 2026-04-20 08:56 | 41.95044 | 12.50473 | 59 ft | 14 kts | 207° |
| 2026-04-20 08:57 | 41.94970 | 12.50475 | 59 ft | 12 kts | 172° |
| 2026-04-20 08:57 | 41.94894 | 12.50493 | 58 ft | 14 kts | 172° |
| 2026-04-20 08:57 | 41.94841 | 12.50496 | 57 ft | 0 kts | 207° |
| 2026-04-20 08:58 | 41.94838 | 12.50494 | 57 ft | 3 kts | 205° |
| 2026-04-20 08:59 | 41.94808 | 12.50444 | 57 ft | 8 kts | 249° |
| 2026-04-20 08:59 | 41.94814 | 12.50428 | 57 ft | 0 kts | 340° |
| 2026-04-20 08:59 | 41.94815 | 12.50428 | 57 ft | 5 kts | 340° |
| 2026-04-20 09:00 | 41.95025 | 12.50326 | 57 ft | 66 kts | 339° |
| 2026-04-20 09:00 | 41.95454 | 12.50121 | 77 ft | 89 kts | 339° |
| 2026-04-20 09:00 | 41.95937 | 12.49895 | 233 ft | 94 kts | 341° |
| 2026-04-20 09:00 | 41.96435 | 12.49681 | 455 ft | 94 kts | 341° |
| 2026-04-20 09:01 | 41.96971 | 12.49438 | 632 ft | 101 kts | 339° |
| 2026-04-20 09:01 | 41.97546 | 12.49154 | 767 ft | 112 kts | 340° |
| 2026-04-20 09:01 | 41.98203 | 12.48836 | 975 ft | 118 kts | 340° |
| 2026-04-20 09:01 | 41.98887 | 12.48511 | 1172 ft | 124 kts | 339° |
| 2026-04-20 09:02 | 41.99558 | 12.48204 | 1360 ft | 128 kts | 339° |
| 2026-04-20 09:02 | 42.00265 | 12.47891 | 1490 ft | 136 kts | 340° |
| 2026-04-20 09:02 | 42.01062 | 12.47543 | 1503 ft | 150 kts | 340° |
| 2026-04-20 09:02 | 42.01944 | 12.47259 | 1481 ft | 160 kts | 359° |
| 2026-04-20 09:03 | 42.02793 | 12.47555 | 1489 ft | 158 kts | 23° |
| 2026-04-20 09:03 | 42.03606 | 12.48108 | 1491 ft | 156 kts | 29° |
| 2026-04-20 09:03 | 42.04375 | 12.48710 | 1493 ft | 154 kts | 31° |
| 2026-04-20 09:03 | 42.05143 | 12.49343 | 1493 ft | 153 kts | 32° |
| 2026-04-20 09:04 | 42.05940 | 12.50016 | 1493 ft | 152 kts | 32° |
| 2026-04-20 09:04 | 42.06686 | 12.50653 | 1493 ft | 152 kts | 33° |
| 2026-04-20 09:04 | 42.07373 | 12.51358 | 1483 ft | 151 kts | 46° |
| 2026-04-20 09:04 | 42.07928 | 12.52246 | 1487 ft | 145 kts | 52° |
| 2026-04-20 09:05 | 42.08438 | 12.53121 | 1491 ft | 140 kts | 53° |
| 2026-04-20 09:05 | 42.08935 | 12.53980 | 1493 ft | 142 kts | 53° |
| 2026-04-20 09:05 | 42.09439 | 12.54847 | 1496 ft | 144 kts | 53° |
| 2026-04-20 09:05 | 42.09937 | 12.55702 | 1500 ft | 145 kts | 52° |
| 2026-04-20 09:06 | 42.10457 | 12.56590 | 1497 ft | 146 kts | 52° |
| 2026-04-20 09:06 | 42.10986 | 12.57497 | 1494 ft | 147 kts | 52° |
| 2026-04-20 09:06 | 42.11507 | 12.58389 | 1494 ft | 147 kts | 52° |
| 2026-04-20 09:06 | 42.12027 | 12.59279 | 1495 ft | 148 kts | 52° |
| 2026-04-20 09:07 | 42.12564 | 12.60199 | 1494 ft | 148 kts | 52° |
| 2026-04-20 09:07 | 42.13094 | 12.61108 | 1491 ft | 148 kts | 52° |
| 2026-04-20 09:07 | 42.13635 | 12.62036 | 1491 ft | 148 kts | 52° |
| 2026-04-20 09:07 | 42.14160 | 12.62936 | 1492 ft | 148 kts | 52° |
| 2026-04-20 09:08 | 42.14682 | 12.63831 | 1494 ft | 148 kts | 52° |
| 2026-04-20 09:08 | 42.15341 | 12.64534 | 1497 ft | 148 kts | 20° |
| 2026-04-20 09:08 | 42.16191 | 12.64668 | 1546 ft | 144 kts | 356° |
| 2026-04-20 09:08 | 42.17022 | 12.64582 | 1646 ft | 142 kts | 353° |
| 2026-04-20 09:09 | 42.17842 | 12.64430 | 1747 ft | 140 kts | 346° |
| 2026-04-20 09:09 | 42.18621 | 12.64176 | 1841 ft | 139 kts | 344° |
| 2026-04-20 09:09 | 42.19474 | 12.63890 | 1943 ft | 138 kts | 344° |
| 2026-04-20 09:09 | 42.20319 | 12.63609 | 2045 ft | 137 kts | 344° |
| 2026-04-20 09:10 | 42.21160 | 12.63331 | 2148 ft | 136 kts | 343° |
| 2026-04-20 09:10 | 42.21997 | 12.63058 | 2251 ft | 136 kts | 343° |
| 2026-04-20 09:10 | 42.22806 | 12.62803 | 2354 ft | 135 kts | 344° |
| 2026-04-20 09:10 | 42.23696 | 12.62526 | 2466 ft | 135 kts | 343° |
| 2026-04-20 09:11 | 42.24529 | 12.62263 | 2568 ft | 135 kts | 344° |
| 2026-04-20 09:11 | 42.25299 | 12.62013 | 2668 ft | 135 kts | 343° |
| 2026-04-20 09:11 | 42.26053 | 12.61764 | 2763 ft | 134 kts | 344° |
| 2026-04-20 09:11 | 42.26804 | 12.61513 | 2859 ft | 134 kts | 344° |
| 2026-04-20 09:12 | 42.27552 | 12.61261 | 2952 ft | 134 kts | 343° |
| 2026-04-20 09:12 | 42.28311 | 12.61008 | 2985 ft | 139 kts | 343° |
| 2026-04-20 09:12 | 42.29103 | 12.60744 | 2993 ft | 143 kts | 343° |
| 2026-04-20 09:12 | 42.29925 | 12.60467 | 2997 ft | 147 kts | 344° |
| 2026-04-20 09:13 | 42.30747 | 12.60191 | 2998 ft | 150 kts | 344° |
| 2026-04-20 09:13 | 42.31601 | 12.59905 | 3000 ft | 153 kts | 343° |
| 2026-04-20 09:13 | 42.32461 | 12.59616 | 3001 ft | 154 kts | 344° |
| 2026-04-20 09:13 | 42.33309 | 12.59330 | 3001 ft | 156 kts | 344° |
| 2026-04-20 09:14 | 42.34184 | 12.59033 | 3003 ft | 159 kts | 344° |
| 2026-04-20 09:14 | 42.35086 | 12.58724 | 3001 ft | 163 kts | 344° |
| 2026-04-20 09:14 | 42.35991 | 12.58416 | 3001 ft | 166 kts | 344° |
| 2026-04-20 09:14 | 42.36908 | 12.58104 | 3002 ft | 169 kts | 344° |
| 2026-04-20 09:15 | 42.37837 | 12.57786 | 3000 ft | 170 kts | 344° |
| 2026-04-20 09:15 | 42.38777 | 12.57464 | 2998 ft | 172 kts | 344° |
| 2026-04-20 09:15 | 42.39718 | 12.57143 | 2996 ft | 172 kts | 343° |
| 2026-04-20 09:15 | 42.40660 | 12.56824 | 2999 ft | 173 kts | 344° |
| 2026-04-20 09:16 | 42.41607 | 12.56504 | 3002 ft | 174 kts | 344° |
| 2026-04-20 09:16 | 42.42562 | 12.56182 | 2995 ft | 174 kts | 344° |
| 2026-04-20 09:16 | 42.43509 | 12.55863 | 2996 ft | 174 kts | 344° |
| 2026-04-20 09:16 | 42.44459 | 12.55543 | 2996 ft | 174 kts | 343° |
| 2026-04-20 09:17 | 42.45399 | 12.55229 | 2995 ft | 175 kts | 344° |
| 2026-04-20 09:17 | 42.46355 | 12.54911 | 2989 ft | 175 kts | 344° |
| 2026-04-20 09:17 | 42.47308 | 12.54592 | 2988 ft | 175 kts | 344° |
| 2026-04-20 09:17 | 42.48275 | 12.54266 | 2983 ft | 175 kts | 344° |
| 2026-04-20 09:18 | 42.49235 | 12.53948 | 2982 ft | 175 kts | 344° |
| 2026-04-20 09:18 | 42.50191 | 12.53631 | 2972 ft | 175 kts | 344° |
| 2026-04-20 09:18 | 42.51156 | 12.53310 | 2967 ft | 174 kts | 343° |
| 2026-04-20 09:18 | 42.52111 | 12.52993 | 2966 ft | 173 kts | 343° |
| 2026-04-20 09:19 | 42.53079 | 12.52673 | 2966 ft | 173 kts | 344° |
| 2026-04-20 09:19 | 42.54043 | 12.52366 | 2957 ft | 173 kts | 348° |
| 2026-04-20 09:19 | 42.55030 | 12.52594 | 2953 ft | 175 kts | 25° |
| 2026-04-20 09:19 | 42.55877 | 12.53279 | 3000 ft | 172 kts | 32° |
| 2026-04-20 09:20 | 42.56702 | 12.54004 | 3039 ft | 170 kts | 33° |
| 2026-04-20 09:20 | 42.57517 | 12.54726 | 3081 ft | 169 kts | 32° |
| 2026-04-20 09:20 | 42.58336 | 12.55448 | 3125 ft | 168 kts | 32° |
| 2026-04-20 09:20 | 42.59172 | 12.56183 | 3165 ft | 168 kts | 33° |
| 2026-04-20 09:21 | 42.59869 | 12.57071 | 3172 ft | 168 kts | 60° |
| 2026-04-20 09:21 | 42.60065 | 12.58286 | 3231 ft | 163 kts | 94° |
| 2026-04-20 09:21 | 42.59904 | 12.59435 | 3390 ft | 154 kts | 108° |
| 2026-04-20 09:21 | 42.59615 | 12.60512 | 3552 ft | 148 kts | 114° |
| 2026-04-20 09:22 | 42.59238 | 12.61653 | 3741 ft | 142 kts | 117° |
| 2026-04-20 09:22 | 42.58900 | 12.62581 | 3903 ft | 139 kts | 118° |
| 2026-04-20 09:22 | 42.58542 | 12.63521 | 4071 ft | 138 kts | 119° |
| 2026-04-20 09:22 | 42.58186 | 12.64436 | 4225 ft | 141 kts | 120° |
| 2026-04-20 09:23 | 42.57806 | 12.65402 | 4380 ft | 144 kts | 120° |
| 2026-04-20 09:23 | 42.57429 | 12.66356 | 4534 ft | 146 kts | 120° |
| 2026-04-20 09:23 | 42.57036 | 12.67341 | 4683 ft | 148 kts | 120° |
| 2026-04-20 09:23 | 42.56640 | 12.68335 | 4829 ft | 149 kts | 120° |
| 2026-04-20 09:24 | 42.56239 | 12.69339 | 4976 ft | 151 kts | 120° |
| 2026-04-20 09:24 | 42.55837 | 12.70344 | 5122 ft | 152 kts | 120° |
| 2026-04-20 09:24 | 42.55434 | 12.71355 | 5265 ft | 152 kts | 121° |
| 2026-04-20 09:24 | 42.55030 | 12.72364 | 5407 ft | 153 kts | 120° |
| 2026-04-20 09:25 | 42.54621 | 12.73385 | 5552 ft | 153 kts | 121° |
| 2026-04-20 09:25 | 42.54213 | 12.74405 | 5694 ft | 153 kts | 121° |
| 2026-04-20 09:25 | 42.53803 | 12.75427 | 5840 ft | 154 kts | 121° |
| 2026-04-20 09:25 | 42.53310 | 12.76376 | 5972 ft | 152 kts | 136° |
| 2026-04-20 09:26 | 42.52700 | 12.77176 | 6115 ft | 151 kts | 140° |
| 2026-04-20 09:26 | 42.52075 | 12.77958 | 6257 ft | 151 kts | 141° |
| 2026-04-20 09:26 | 42.51451 | 12.78735 | 6401 ft | 150 kts | 141° |
| 2026-04-20 09:26 | 42.50831 | 12.79510 | 6545 ft | 150 kts | 141° |
| 2026-04-20 09:27 | 42.50215 | 12.80282 | 6690 ft | 150 kts | 141° |
| 2026-04-20 09:27 | 42.49589 | 12.81068 | 6835 ft | 150 kts | 140° |
| 2026-04-20 09:27 | 42.48971 | 12.81845 | 6962 ft | 151 kts | 140° |
| 2026-04-20 09:27 | 42.48327 | 12.82653 | 6999 ft | 158 kts | 140° |
| 2026-04-20 09:28 | 42.47666 | 12.83482 | 7010 ft | 165 kts | 140° |
| 2026-04-20 09:28 | 42.46966 | 12.84362 | 7013 ft | 171 kts | 140° |
| 2026-04-20 09:28 | 42.46256 | 12.85252 | 7013 ft | 175 kts | 140° |
| 2026-04-20 09:28 | 42.45536 | 12.86154 | 7013 ft | 179 kts | 140° |
| 2026-04-20 09:29 | 42.44783 | 12.87100 | 7014 ft | 181 kts | 140° |
| 2026-04-20 09:29 | 42.44044 | 12.88028 | 7013 ft | 183 kts | 140° |
| 2026-04-20 09:29 | 42.43286 | 12.88977 | 7014 ft | 185 kts | 140° |
| 2026-04-20 09:29 | 42.42519 | 12.89939 | 7011 ft | 186 kts | 140° |
| 2026-04-20 09:30 | 42.41765 | 12.90884 | 7008 ft | 187 kts | 140° |
| 2026-04-20 09:30 | 42.40989 | 12.91854 | 7005 ft | 187 kts | 140° |
| 2026-04-20 09:30 | 42.40221 | 12.92817 | 7003 ft | 187 kts | 140° |
| 2026-04-20 09:30 | 42.39458 | 12.93772 | 7005 ft | 187 kts | 140° |
| 2026-04-20 09:31 | 42.38882 | 12.94967 | 7007 ft | 191 kts | 107° |
| 2026-04-20 09:31 | 42.38841 | 12.96378 | 7020 ft | 192 kts | 82° |
| 2026-04-20 09:31 | 42.39023 | 12.97797 | 7019 ft | 193 kts | 78° |
| 2026-04-20 09:31 | 42.39233 | 12.99214 | 7019 ft | 193 kts | 78° |
| 2026-04-20 09:32 | 42.39440 | 13.00614 | 7022 ft | 193 kts | 78° |
| 2026-04-20 09:32 | 42.39645 | 13.02026 | 7021 ft | 193 kts | 78° |
| 2026-04-20 09:32 | 42.39848 | 13.03429 | 7018 ft | 193 kts | 78° |
| 2026-04-20 09:32 | 42.40052 | 13.04852 | 7014 ft | 193 kts | 78° |
| 2026-04-20 09:33 | 42.40257 | 13.06286 | 7013 ft | 193 kts | 78° |
| 2026-04-20 09:33 | 42.40458 | 13.07690 | 7014 ft | 193 kts | 78° |
| 2026-04-20 09:33 | 42.40659 | 13.09092 | 7018 ft | 192 kts | 78° |
| 2026-04-20 09:33 | 42.40860 | 13.10507 | 7015 ft | 193 kts | 78° |
| 2026-04-20 09:34 | 42.41061 | 13.11915 | 7012 ft | 193 kts | 78° |
| 2026-04-20 09:34 | 42.41267 | 13.13362 | 7012 ft | 193 kts | 78° |
| 2026-04-20 09:34 | 42.41668 | 13.16163 | 7021 ft | 193 kts | 77° |
| 2026-04-20 09:35 | 42.41877 | 13.17642 | 7013 ft | 193 kts | 78° |
| 2026-04-20 09:35 | 42.42084 | 13.19096 | 7010 ft | 193 kts | 78° |
| 2026-04-20 09:35 | 42.42285 | 13.20518 | 7008 ft | 193 kts | 77° |
| 2026-04-20 09:35 | 42.42489 | 13.21950 | 7008 ft | 193 kts | 78° |
| 2026-04-20 09:36 | 42.42688 | 13.23364 | 7007 ft | 191 kts | 77° |
| 2026-04-20 09:36 | 42.42888 | 13.24772 | 7003 ft | 190 kts | 77° |
| 2026-04-20 09:36 | 42.43084 | 13.26156 | 7003 ft | 189 kts | 77° |
| 2026-04-20 09:36 | 42.43172 | 13.27544 | 6972 ft | 190 kts | 98° |
| 2026-04-20 09:37 | 42.42713 | 13.28856 | 6995 ft | 185 kts | 126° |
| 2026-04-20 09:37 | 42.41979 | 13.30149 | 7001 ft | 185 kts | 129° |
| 2026-04-20 09:37 | 42.41347 | 13.31234 | 7001 ft | 185 kts | 130° |
| 2026-04-20 09:37 | 42.40724 | 13.32297 | 7001 ft | 186 kts | 129° |
| 2026-04-20 09:38 | 42.40071 | 13.33406 | 6998 ft | 185 kts | 130° |
| 2026-04-20 09:38 | 42.39436 | 13.34482 | 7004 ft | 185 kts | 129° |
| 2026-04-20 09:38 | 42.38803 | 13.35552 | 7006 ft | 185 kts | 130° |
| 2026-04-20 09:38 | 42.38171 | 13.36619 | 7008 ft | 185 kts | 130° |
| 2026-04-20 09:39 | 42.37519 | 13.37721 | 7012 ft | 184 kts | 130° |
| 2026-04-20 09:39 | 42.36884 | 13.38798 | 7014 ft | 184 kts | 129° |
| 2026-04-20 09:39 | 42.36249 | 13.39878 | 7015 ft | 184 kts | 130° |
| 2026-04-20 09:39 | 42.35614 | 13.40958 | 7015 ft | 184 kts | 129° |
| 2026-04-20 09:40 | 42.34980 | 13.42035 | 7017 ft | 184 kts | 129° |
| 2026-04-20 09:40 | 42.34328 | 13.43141 | 7022 ft | 184 kts | 130° |
| 2026-04-20 09:40 | 42.33698 | 13.44207 | 7021 ft | 184 kts | 129° |
| 2026-04-20 09:40 | 42.33043 | 13.45313 | 7020 ft | 184 kts | 130° |
| 2026-04-20 09:41 | 42.32403 | 13.46394 | 7020 ft | 184 kts | 129° |
| 2026-04-20 09:41 | 42.31765 | 13.47472 | 7015 ft | 185 kts | 129° |
| 2026-04-20 09:41 | 42.31110 | 13.48575 | 7012 ft | 185 kts | 129° |
| 2026-04-20 09:41 | 42.30467 | 13.49660 | 7016 ft | 185 kts | 129° |
| 2026-04-20 09:42 | 42.29813 | 13.50755 | 7015 ft | 185 kts | 129° |
| 2026-04-20 09:42 | 42.29136 | 13.51785 | 6987 ft | 185 kts | 143° |
| 2026-04-20 09:42 | 42.28193 | 13.52285 | 7007 ft | 178 kts | 171° |
| 2026-04-20 09:42 | 42.27219 | 13.52448 | 7008 ft | 177 kts | 178° |
| 2026-04-20 09:43 | 42.26177 | 13.52544 | 7012 ft | 177 kts | 178° |
| 2026-04-20 09:43 | 42.25077 | 13.52639 | 7010 ft | 177 kts | 179° |
| 2026-04-20 09:43 | 42.24101 | 13.52723 | 7003 ft | 177 kts | 179° |
| 2026-04-20 09:43 | 42.23131 | 13.52804 | 7004 ft | 177 kts | 179° |
| 2026-04-20 09:44 | 42.22129 | 13.52889 | 7007 ft | 177 kts | 179° |
| 2026-04-20 09:44 | 42.21133 | 13.52933 | 6983 ft | 176 kts | 189° |
| 2026-04-20 09:44 | 42.20239 | 13.52300 | 6988 ft | 169 kts | 228° |
| 2026-04-20 09:44 | 42.19870 | 13.51165 | 6996 ft | 165 kts | 264° |
| 2026-04-20 09:45 | 42.20044 | 13.49993 | 6996 ft | 165 kts | 292° |
| 2026-04-20 09:45 | 42.20488 | 13.48916 | 6995 ft | 165 kts | 298° |
| 2026-04-20 09:45 | 42.20985 | 13.47804 | 7002 ft | 164 kts | 298° |
| 2026-04-20 09:45 | 42.21487 | 13.46694 | 6995 ft | 164 kts | 298° |
| 2026-04-20 09:46 | 42.21978 | 13.45603 | 7022 ft | 165 kts | 298° |
| 2026-04-20 09:46 | 42.22425 | 13.44513 | 7016 ft | 165 kts | 288° |
| 2026-04-20 09:46 | 42.22586 | 13.43300 | 7026 ft | 165 kts | 274° |
| 2026-04-20 09:46 | 42.22640 | 13.42050 | 7019 ft | 166 kts | 271° |
| 2026-04-20 09:47 | 42.22686 | 13.40704 | 7015 ft | 166 kts | 271° |
| 2026-04-20 09:47 | 42.22729 | 13.39380 | 7012 ft | 166 kts | 272° |
| 2026-04-20 09:47 | 42.22769 | 13.38053 | 7010 ft | 166 kts | 271° |
| 2026-04-20 09:47 | 42.22963 | 13.36859 | 6965 ft | 167 kts | 298° |
| 2026-04-20 09:48 | 42.23563 | 13.35938 | 7018 ft | 167 kts | 313° |
| 2026-04-20 09:48 | 42.24239 | 13.35098 | 7015 ft | 168 kts | 314° |
| 2026-04-20 09:48 | 42.24926 | 13.34259 | 7019 ft | 168 kts | 314° |
| 2026-04-20 09:48 | 42.25620 | 13.33417 | 7018 ft | 169 kts | 315° |
| 2026-04-20 09:49 | 42.26306 | 13.32583 | 7007 ft | 169 kts | 314° |
| 2026-04-20 09:49 | 42.27003 | 13.31741 | 7004 ft | 168 kts | 315° |
| 2026-04-20 09:49 | 42.27689 | 13.30910 | 7005 ft | 168 kts | 315° |
| 2026-04-20 09:49 | 42.28393 | 13.30064 | 7001 ft | 167 kts | 315° |
| 2026-04-20 09:50 | 42.29085 | 13.29231 | 7003 ft | 167 kts | 315° |
| 2026-04-20 09:50 | 42.29778 | 13.28407 | 7002 ft | 167 kts | 315° |
| 2026-04-20 09:50 | 42.30457 | 13.27551 | 6994 ft | 165 kts | 305° |
| 2026-04-20 09:50 | 42.30730 | 13.26389 | 7008 ft | 162 kts | 268° |
| 2026-04-20 09:51 | 42.30528 | 13.25221 | 7012 ft | 162 kts | 251° |
| 2026-04-20 09:51 | 42.30242 | 13.24053 | 7017 ft | 162 kts | 251° |
| 2026-04-20 09:51 | 42.29957 | 13.22908 | 7013 ft | 163 kts | 251° |
| 2026-04-20 09:51 | 42.29671 | 13.21765 | 7020 ft | 163 kts | 251° |
| 2026-04-20 09:52 | 42.29383 | 13.20614 | 7013 ft | 163 kts | 251° |
| 2026-04-20 09:52 | 42.29095 | 13.19464 | 7010 ft | 163 kts | 251° |
| 2026-04-20 09:52 | 42.28807 | 13.18315 | 7009 ft | 163 kts | 252° |
| 2026-04-20 09:52 | 42.28517 | 13.17156 | 7011 ft | 162 kts | 251° |
| 2026-04-20 09:53 | 42.28227 | 13.15997 | 7006 ft | 162 kts | 251° |
| 2026-04-20 09:53 | 42.27942 | 13.14863 | 7015 ft | 162 kts | 251° |
| 2026-04-20 09:53 | 42.27651 | 13.13700 | 7008 ft | 162 kts | 251° |
| 2026-04-20 09:53 | 42.27364 | 13.12562 | 7014 ft | 162 kts | 251° |
| 2026-04-20 09:54 | 42.27074 | 13.11405 | 7011 ft | 163 kts | 251° |
| 2026-04-20 09:54 | 42.26785 | 13.10251 | 7007 ft | 163 kts | 251° |
| 2026-04-20 09:54 | 42.26492 | 13.09081 | 7007 ft | 163 kts | 251° |
| 2026-04-20 09:54 | 42.26201 | 13.07917 | 7011 ft | 163 kts | 251° |
| 2026-04-20 09:55 | 42.25914 | 13.06775 | 7008 ft | 163 kts | 251° |
| 2026-04-20 09:55 | 42.25623 | 13.05618 | 7009 ft | 162 kts | 251° |
| 2026-04-20 09:55 | 42.25332 | 13.04462 | 7012 ft | 161 kts | 251° |
| 2026-04-20 09:55 | 42.25044 | 13.03318 | 7014 ft | 158 kts | 251° |
| 2026-04-20 09:56 | 42.24763 | 13.02201 | 7013 ft | 156 kts | 251° |
| 2026-04-20 09:56 | 42.24487 | 13.01110 | 7013 ft | 155 kts | 251° |
| 2026-04-20 09:56 | 42.24211 | 13.00015 | 7010 ft | 153 kts | 251° |
| 2026-04-20 09:56 | 42.23943 | 12.98954 | 7008 ft | 152 kts | 251° |
| 2026-04-20 09:57 | 42.23667 | 12.97863 | 7011 ft | 151 kts | 251° |
| 2026-04-20 09:57 | 42.23403 | 12.96820 | 7014 ft | 150 kts | 251° |
| 2026-04-20 09:57 | 42.23132 | 12.95749 | 7016 ft | 149 kts | 251° |
| 2026-04-20 09:57 | 42.22869 | 12.94709 | 7015 ft | 149 kts | 251° |
| 2026-04-20 09:58 | 42.22596 | 12.93628 | 7007 ft | 149 kts | 251° |
| 2026-04-20 09:58 | 42.22317 | 12.92525 | 6903 ft | 150 kts | 251° |
| 2026-04-20 09:58 | 42.22047 | 12.91462 | 6772 ft | 141 kts | 251° |
| 2026-04-20 09:58 | 42.21789 | 12.90440 | 6632 ft | 135 kts | 251° |
| 2026-04-20 09:59 | 42.21553 | 12.89506 | 6513 ft | 130 kts | 251° |
| 2026-04-20 09:59 | 42.21321 | 12.88593 | 6363 ft | 132 kts | 250° |
| 2026-04-20 09:59 | 42.21075 | 12.87624 | 6224 ft | 139 kts | 250° |
| 2026-04-20 09:59 | 42.20821 | 12.86624 | 6084 ft | 143 kts | 250° |
| 2026-04-20 10:00 | 42.20558 | 12.85591 | 5941 ft | 147 kts | 250° |
| 2026-04-20 10:00 | 42.20292 | 12.84546 | 5796 ft | 150 kts | 250° |
| 2026-04-20 10:00 | 42.20022 | 12.83481 | 5655 ft | 153 kts | 250° |
| 2026-04-20 10:00 | 42.19746 | 12.82392 | 5514 ft | 155 kts | 250° |
| 2026-04-20 10:01 | 42.19466 | 12.81289 | 5369 ft | 156 kts | 250° |
| 2026-04-20 10:01 | 42.19185 | 12.80184 | 5226 ft | 157 kts | 250° |
| 2026-04-20 10:01 | 42.18903 | 12.79078 | 5089 ft | 158 kts | 250° |
| 2026-04-20 10:01 | 42.18618 | 12.77957 | 4952 ft | 159 kts | 250° |
| 2026-04-20 10:02 | 42.18330 | 12.76827 | 4811 ft | 160 kts | 250° |
| 2026-04-20 10:02 | 42.18044 | 12.75702 | 4673 ft | 160 kts | 250° |
| 2026-04-20 10:02 | 42.17751 | 12.74555 | 4532 ft | 161 kts | 250° |
| 2026-04-20 10:02 | 42.17465 | 12.73432 | 4395 ft | 161 kts | 250° |
| 2026-04-20 10:03 | 42.17175 | 12.72295 | 4258 ft | 162 kts | 250° |
| 2026-04-20 10:03 | 42.16885 | 12.71158 | 4119 ft | 162 kts | 250° |
| 2026-04-20 10:03 | 42.16587 | 12.69996 | 3979 ft | 162 kts | 250° |
| 2026-04-20 10:03 | 42.16296 | 12.68853 | 3841 ft | 162 kts | 250° |
| 2026-04-20 10:04 | 42.15998 | 12.67689 | 3701 ft | 163 kts | 250° |
| 2026-04-20 10:04 | 42.15704 | 12.66542 | 3561 ft | 163 kts | 250° |
| 2026-04-20 10:04 | 42.15378 | 12.65408 | 3412 ft | 163 kts | 239° |
| 2026-04-20 10:04 | 42.14706 | 12.64586 | 3285 ft | 163 kts | 212° |
| 2026-04-20 10:05 | 42.13914 | 12.64007 | 3147 ft | 163 kts | 207° |
| 2026-04-20 10:05 | 42.13084 | 12.63453 | 3005 ft | 163 kts | 207° |
| 2026-04-20 10:05 | 42.12230 | 12.62893 | 2856 ft | 163 kts | 206° |
| 2026-04-20 10:05 | 42.11373 | 12.62334 | 2707 ft | 163 kts | 206° |
| 2026-04-20 10:06 | 42.10553 | 12.61801 | 2564 ft | 163 kts | 206° |
| 2026-04-20 10:06 | 42.09711 | 12.61257 | 2417 ft | 163 kts | 206° |
| 2026-04-20 10:06 | 42.08846 | 12.60696 | 2269 ft | 164 kts | 206° |
| 2026-04-20 10:06 | 42.07973 | 12.60131 | 2116 ft | 163 kts | 206° |
| 2026-04-20 10:07 | 42.07159 | 12.59603 | 2008 ft | 160 kts | 205° |
| 2026-04-20 10:07 | 42.06364 | 12.59088 | 1977 ft | 153 kts | 206° |
| 2026-04-20 10:07 | 42.05591 | 12.58584 | 1865 ft | 153 kts | 207° |
| 2026-04-20 10:07 | 42.04923 | 12.57963 | 1737 ft | 128 kts | 216° |
| 2026-04-20 10:08 | 42.04428 | 12.57444 | 1574 ft | 101 kts | 217° |
| 2026-04-20 10:08 | 42.04008 | 12.57002 | 1463 ft | 78 kts | 216° |
| 2026-04-20 10:08 | 42.03693 | 12.56659 | 1360 ft | 63 kts | 220° |
| 2026-04-20 10:08 | 42.03518 | 12.56172 | 1056 ft | 80 kts | 254° |
| 2026-04-20 10:09 | 42.03438 | 12.55550 | 795 ft | 83 kts | 257° |
| 2026-04-20 10:09 | 42.03333 | 12.54961 | 511 ft | 77 kts | 250° |
| 2026-04-20 10:09 | 42.03245 | 12.54400 | 265 ft | 70 kts | 261° |
| 2026-04-20 10:09 | 42.03371 | 12.53903 | 59 ft | 63 kts | 298° |
| 2026-04-20 10:10 | 42.03468 | 12.53663 | 62 ft | 3 kts | 277° |